Beloit, KS

9:36 AM CST on March 03, 2015 (GMT -0600)
Kansas | Change Station
CLOSE
Current Station
Personal Weather Station
Location: Beloit, KS
Elevation: 1404 ft
Nearby Weather Stations

Elev 1404 ft 39.46 °N, 98.10 °W | Updated 10 seconds ago

Overcast
Overcast
38.5 °F
Feels Like 33 °F
N
8.4
Wind Variable Wind from NNW
Gusts 22.0 mph

Today
High -- | Low -- °F
--% Chance of Precip.
Yesterday
High -- | Low -- °F
Precip. -- in
7:02 AM 6:26 PM
Waxing Gibbous, 96% visible
Pressure 29.75 in
Visibility 8.0 miles
Clouds Scattered Clouds 2600 ft
Windchill 33 °F
Dew Point 31 °F
Humidity 71%
Rainfall 0.00 in
Snow Depth Not available.
UV 2 out of 12
Pollen 3.40 out of 12
Air Quality Not available.
Flu Activity Not available.
SPECI KCNK 031513Z AUTO 32018G24KT 8SM SCT026 03/M01 A2975 RMK AO2 T00331006

More Conditions Fewer Conditions

Pressure 29.75 in
Visibility 8.0 miles
Clouds Scattered Clouds 2600 ft
Windchill 33 °F
Dew Point 31 °F
Humidity 71%
Rainfall 0.00 in
Snow Depth Not available.
UV 2 out of 12
Pollen 3.40 out of 12
Air Quality Not available.
Flu Activity Not available.
SPECI KCNK 031513Z AUTO 32018G24KT 8SM SCT026 03/M01 A2975 RMK AO2 T00331006

More Conditions Fewer Conditions

10-Day Weather Forecast

Almanac

Astronomy

Mar. 03, 2015 Rise Set
Actual Time
Civil Twilight
Nautical Twilight
Astronomical Twilight
Moon
Length of Visible Light
Length of Day
Tomorrow will be .
, % of the Moon is Illuminated

Today's Extremes

State Highs State Lows

Community

WunderPhotos

Upload Photos

1,802,147 photos uploaded!

WunderBlogs® & News

Nearby

Air Quality

  Air Quality AQ Index Pollutant
Not available.

Snow Depth

Station Depth Elevation

Earthquake Activity

City Distance Mag. Time & Date
Minimum magnitude displayed is 2.5.

Coastal Water Temperatures

Place Temperature

Nearby Weather Stations